Time;durP1;ratioP1;P1;durP2;ratioP2;P2;SDS_P1;SDS_P2;PMS_P1;PMS_P2;Temp;Humidity;BMP_temperature;BMP_pressure;BME280_temperature;BME280_humidity;BME280_pressure;Samples;Min_cycle;Max_cycle;Signal;HPM_P1;HPM_P2
2022/05/04 00:00:53;;;;;;;8.63;2.90;;;7.80;99.90;;;;;;5120992;28;20058;-81
2022/05/04 00:03:19;;;;;;;9.68;2.92;;;7.80;99.90;;;;;;5122041;28;20422;-81
2022/05/04 00:05:45;;;;;;;8.68;2.67;;;7.80;99.90;;;;;;5121156;28;20134;-81
2022/05/04 00:08:11;;;;;;;8.23;2.85;;;7.80;99.90;;;;;;5123036;28;20467;-81
2022/05/04 00:10:37;;;;;;;7.22;3.13;;;7.80;99.90;;;;;;5121969;28;20078;-81
2022/05/04 00:13:03;;;;;;;9.10;2.85;;;8.10;99.90;;;;;;5121783;28;20066;-81
2022/05/04 00:15:29;;;;;;;6.40;2.63;;;7.80;99.90;;;;;;5123397;28;20032;-81
2022/05/04 00:17:54;;;;;;;9.52;3.10;;;7.80;99.90;;;;;;5122897;28;20470;-81
2022/05/04 00:20:20;;;;;;;7.00;3.40;;;7.80;99.90;;;;;;5121420;28;20040;-81
2022/05/04 00:22:46;;;;;;;6.95;3.00;;;8.20;99.90;;;;;;5122697;28;20067;-81
2022/05/04 00:25:12;;;;;;;7.60;3.15;;;8.30;99.90;;;;;;5138164;28;20058;-81
2022/05/04 00:31:19;;;;;;;11.95;3.10;;;7.90;99.90;;;;;;5122542;28;20108;-81
2022/05/04 00:33:44;;;;;;;8.63;3.15;;;8.30;99.90;;;;;;5121519;28;20138;-81
2022/05/04 00:36:10;;;;;;;8.57;3.38;;;8.20;99.90;;;;;;5121233;28;20070;-81
2022/05/04 00:38:36;;;;;;;8.52;3.22;;;7.90;99.90;;;;;;5124988;28;20107;-81
2022/05/04 00:41:01;;;;;;;7.88;3.50;;;7.90;99.90;;;;;;5126506;28;20040;-80
2022/05/04 00:43:27;;;;;;;10.07;3.30;;;7.90;99.90;;;;;;5124873;28;20114;-81
2022/05/04 00:45:53;;;;;;;8.15;2.90;;;7.90;99.90;;;;;;5126631;28;20047;-81
2022/05/04 00:48:18;;;;;;;9.63;2.92;;;7.90;99.90;;;;;;5125933;28;20055;-81
2022/05/04 00:50:46;;;;;;;10.43;3.58;;;7.90;99.90;;;;;;5126824;28;20075;-81
2022/05/04 00:53:13;;;;;;;9.30;2.88;;;8.20;99.90;;;;;;5126647;28;20031;-81
2022/05/04 00:55:39;;;;;;;7.80;3.33;;;8.00;99.90;;;;;;5125683;28;20044;-81
2022/05/04 01:00:53;;;;;;;9.80;3.00;;;7.90;99.90;;;;;;5126597;28;20100;-81
2022/05/04 01:03:19;;;;;;;7.60;3.28;;;8.00;99.90;;;;;;5124555;28;20044;-81
2022/05/04 01:05:45;;;;;;;11.82;3.05;;;7.90;99.90;;;;;;5126268;28;20036;-81
2022/05/04 01:08:10;;;;;;;9.73;3.42;;;7.80;99.90;;;;;;5124537;28;20043;-81
2022/05/04 01:10:36;;;;;;;7.97;3.08;;;8.30;99.90;;;;;;5125056;28;20463;-81
2022/05/04 01:13:02;;;;;;;7.90;3.60;;;7.80;99.90;;;;;;5126951;28;20036;-81
2022/05/04 01:15:27;;;;;;;7.60;2.92;;;7.80;99.90;;;;;;5125718;28;20499;-81
2022/05/04 01:17:53;;;;;;;7.32;2.97;;;7.70;99.90;;;;;;5126340;28;20067;-81
2022/05/04 01:20:19;;;;;;;9.98;3.30;;;7.80;99.90;;;;;;5125909;28;20070;-81
2022/05/04 01:22:45;;;;;;;9.93;3.10;;;7.70;99.90;;;;;;5125811;28;20061;-81
2022/05/04 01:25:13;;;;;;;7.80;2.65;;;7.70;99.90;;;;;;5125241;28;20089;-81
2022/05/04 01:31:20;;;;;;;8.95;2.80;;;7.60;99.90;;;;;;5124862;28;20057;-81
2022/05/04 01:33:45;;;;;;;11.48;2.83;;;7.60;99.90;;;;;;5125538;28;20044;-81
2022/05/04 01:36:11;;;;;;;5.60;2.90;;;7.60;99.90;;;;;;5125491;28;20047;-81
2022/05/04 01:38:37;;;;;;;7.25;2.92;;;7.60;99.90;;;;;;5123785;28;20055;-81
2022/05/04 01:41:03;;;;;;;7.50;3.03;;;7.60;99.90;;;;;;5125577;28;20056;-81
2022/05/04 01:43:29;;;;;;;7.85;3.10;;;7.60;99.90;;;;;;5124263;28;20044;-81
2022/05/04 01:45:55;;;;;;;8.90;3.30;;;7.60;99.90;;;;;;5125669;28;20090;-81
2022/05/04 01:48:21;;;;;;;12.05;3.15;;;7.60;99.90;;;;;;5125456;28;20032;-81
2022/05/04 01:50:47;;;;;;;8.07;2.97;;;7.60;99.90;;;;;;5125679;28;20123;-81
2022/05/04 01:53:12;;;;;;;9.18;3.33;;;7.50;99.90;;;;;;5125300;28;20054;-81
2022/05/04 02:02:26;;;;;;;5.85;2.50;;;7.40;99.90;;;;;;5125019;28;20104;-81
2022/05/04 02:04:52;;;;;;;7.82;2.83;;;7.40;99.90;;;;;;5124121;28;20047;-81
2022/05/04 02:07:17;;;;;;;6.97;2.78;;;7.40;99.90;;;;;;5125210;28;20470;-81
2022/05/04 02:09:43;;;;;;;8.77;2.70;;;7.40;99.90;;;;;;5124858;28;20123;-81
2022/05/04 02:12:09;;;;;;;9.45;2.90;;;7.40;99.90;;;;;;5125521;28;20035;-81
2022/05/04 02:14:35;;;;;;;7.30;2.72;;;7.40;99.90;;;;;;5124723;28;20044;-81
2022/05/04 02:17:01;;;;;;;9.02;2.67;;;7.40;99.90;;;;;;5123743;28;20075;-81
2022/05/04 02:19:26;;;;;;;8.65;3.50;;;7.90;99.90;;;;;;5125368;28;20044;-81
2022/05/04 02:21:52;;;;;;;13.50;3.00;;;7.50;99.90;;;;;;5124319;28;20074;-81
2022/05/04 02:24:18;;;;;;;8.93;2.70;;;7.90;99.90;;;;;;5129731;28;20054;-81
2022/05/04 02:26:43;;;;;;;12.95;3.03;;;7.50;99.90;;;;;;5126724;28;20036;-81
2022/05/04 02:29:09;;;;;;;12.63;2.53;;;7.40;99.90;;;;;;5124931;28;20554;-81
2022/05/04 02:31:34;;;;;;;8.18;2.65;;;7.40;99.90;;;;;;5125368;28;20076;-81
2022/05/04 02:34:00;;;;;;;8.60;2.55;;;7.40;99.90;;;;;;5124772;28;20043;-81
2022/05/04 02:39:10;;;;;;;9.73;2.40;;;7.40;99.90;;;;;;5122976;28;20494;-81
2022/05/04 02:41:35;;;;;;;11.02;2.63;;;7.30;99.90;;;;;;5123308;28;20062;-81
2022/05/04 02:44:01;;;;;;;8.20;2.75;;;7.30;99.90;;;;;;5124366;28;20517;-81
2022/05/04 02:46:30;;;;;;;7.70;2.40;;;7.30;99.90;;;;;;5125139;28;20056;-81
2022/05/04 02:48:56;;;;;;;6.88;2.58;;;7.30;99.90;;;;;;5129801;28;20140;-81
2022/05/04 02:51:22;;;;;;;7.15;2.60;;;7.30;99.90;;;;;;5123551;28;20044;-81
2022/05/04 02:53:48;;;;;;;8.57;3.70;;;7.30;99.90;;;;;;5124560;28;20384;-81
2022/05/04 02:56:15;;;;;;;8.43;2.70;;;7.60;99.90;;;;;;5123791;28;20046;-81
2022/05/04 02:58:42;;;;;;;6.78;2.35;;;7.30;99.90;;;;;;5124561;28;20095;-81
2022/05/04 03:04:06;;;;;;;9.10;2.75;;;7.20;99.90;;;;;;5124182;28;20051;-81
2022/05/04 03:06:32;;;;;;;;;;;7.30;99.90;;;;;;5124319;28;20047;-81
2022/05/04 03:08:57;;;;;;;;;;;7.30;99.90;;;;;;5123058;28;19994;-81
2022/05/04 03:14:07;;;;;;;7.88;2.53;;;7.30;99.90;;;;;;5123549;28;19916;-81
2022/05/04 03:16:36;;;;;;;9.57;2.63;;;7.20;99.90;;;;;;5123534;28;20050;-81
2022/05/04 03:19:04;;;;;;;10.93;2.70;;;7.20;99.90;;;;;;5123935;28;20039;-81
2022/05/04 03:21:30;;;;;;;6.90;2.35;;;7.10;99.90;;;;;;5122072;28;20112;-81
2022/05/04 03:23:56;;;;;;;9.32;2.45;;;7.20;99.90;;;;;;5123553;28;20043;-81
2022/05/04 03:26:24;;;;;;;10.98;2.95;;;7.10;99.90;;;;;;5123623;28;20051;-81
2022/05/04 03:28:50;;;;;;;7.32;2.60;;;7.10;99.90;;;;;;5131877;28;20180;-81
2022/05/04 03:31:16;;;;;;;8.23;2.95;;;7.20;99.90;;;;;;5131467;28;20103;-81
2022/05/04 03:33:42;;;;;;;8.45;2.60;;;7.20;99.90;;;;;;5128940;28;20039;-81
2022/05/04 03:36:08;;;;;;;9.95;2.50;;;7.30;99.90;;;;;;5122924;28;20071;-81
2022/05/04 03:38:33;;;;;;;5.07;2.40;;;7.30;99.90;;;;;;5121894;28;20116;-81
2022/05/04 03:40:59;;;;;;;8.85;2.47;;;7.30;99.90;;;;;;5122895;28;20044;-81
2022/05/04 03:43:25;;;;;;;7.00;2.38;;;7.30;99.90;;;;;;5121286;28;20054;-81
2022/05/04 03:45:51;;;;;;;8.75;2.30;;;7.30;99.90;;;;;;5122925;28;20069;-81
2022/05/04 03:48:16;;;;;;;7.97;2.20;;;7.30;99.90;;;;;;5123258;28;20065;-81
2022/05/04 03:50:45;;;;;;;9.20;3.15;;;7.20;99.90;;;;;;5122245;28;20047;-81
2022/05/04 03:53:11;;;;;;;6.20;2.17;;;7.30;99.90;;;;;;5122075;28;20048;-81
2022/05/04 03:55:36;;;;;;;7.15;2.33;;;7.50;99.90;;;;;;5122619;28;20054;-81
2022/05/04 04:01:43;;;;;;;8.73;2.80;;;7.10;99.90;;;;;;5123638;28;20042;-81
2022/05/04 04:04:09;;;;;;;6.00;2.50;;;7.10;99.90;;;;;;5121386;28;20099;-81
2022/05/04 04:06:34;;;;;;;7.38;2.33;;;7.20;99.90;;;;;;5122018;28;20075;-81
2022/05/04 04:09:01;;;;;;;9.23;2.25;;;7.20;99.90;;;;;;5123757;28;20047;-81
2022/05/04 04:11:26;;;;;;;9.77;2.50;;;7.20;99.90;;;;;;5123793;28;20505;-81
2022/05/04 04:13:52;;;;;;;6.00;2.25;;;7.20;99.90;;;;;;5127836;28;20065;-81
2022/05/04 04:16:18;;;;;;;11.02;2.75;;;7.20;99.90;;;;;;5126237;28;20047;-81
2022/05/04 04:18:43;;;;;;;7.30;2.47;;;7.20;99.90;;;;;;5126644;28;20077;-81
2022/05/04 04:23:53;;;;;;;8.10;2.58;;;7.20;99.90;;;;;;5127425;28;20066;-81
2022/05/04 04:26:19;;;;;;;6.93;2.40;;;7.30;99.90;;;;;;5126577;28;20047;-81
2022/05/04 04:28:44;;;;;;;7.72;2.60;;;7.20;99.90;;;;;;5126587;28;20051;-81
2022/05/04 04:31:10;;;;;;;7.75;2.60;;;7.20;99.90;;;;;;5143452;27;20410;-81
2022/05/04 04:33:37;;;;;;;9.07;2.42;;;7.20;99.90;;;;;;5127737;28;20099;-81
2022/05/04 04:36:03;;;;;;;6.25;2.20;;;7.30;99.90;;;;;;5125976;28;20089;-81
2022/05/04 04:38:29;;;;;;;6.57;2.20;;;7.20;99.90;;;;;;5127093;28;20065;-81
2022/05/04 04:40:56;;;;;;;6.97;2.30;;;7.30;99.90;;;;;;5125748;28;20047;-81
2022/05/04 04:47:03;;;;;;;7.47;2.70;;;7.30;99.90;;;;;;5124805;28;20077;-81
2022/05/04 04:49:29;;;;;;;8.77;2.47;;;7.40;99.90;;;;;;5127194;28;20075;-81
2022/05/04 04:51:54;;;;;;;7.13;2.30;;;7.40;99.90;;;;;;5127570;28;20039;-81
2022/05/04 04:54:20;;;;;;;7.63;2.40;;;7.40;99.90;;;;;;5127386;28;20093;-81
2022/05/04 04:56:45;;;;;;;9.15;2.60;;;7.40;99.90;;;;;;5125419;28;20044;-81
2022/05/04 04:59:11;;;;;;;8.68;2.47;;;7.40;99.90;;;;;;5125202;28;20089;-81
2022/05/04 05:01:37;;;;;;;6.78;2.38;;;7.50;99.90;;;;;;5127284;28;20043;-81
2022/05/04 05:04:02;;;;;;;5.80;2.33;;;7.90;99.90;;;;;;5126295;28;20048;-81
2022/05/04 05:06:30;;;;;;;7.22;2.05;;;7.50;99.90;;;;;;5126638;28;20047;-81
2022/05/04 05:08:55;;;;;;;8.27;2.25;;;8.00;99.90;;;;;;5127098;28;20057;-81
2022/05/04 05:11:21;;;;;;;7.47;2.60;;;7.60;99.90;;;;;;5126017;28;20126;-81
2022/05/04 05:16:31;;;;;;;5.45;1.90;;;7.60;99.90;;;;;;5126135;28;20049;-81
2022/05/04 05:18:56;;;;;;;7.65;2.17;;;7.70;99.90;;;;;;5126098;28;20488;-81
2022/05/04 05:21:22;;;;;;;6.03;1.88;;;7.70;99.90;;;;;;5126527;27;20035;-81
2022/05/04 05:23:48;;;;;;;7.72;2.20;;;7.70;99.90;;;;;;5124765;28;20123;-81
2022/05/04 05:26:13;;;;;;;4.32;2.03;;;7.70;99.90;;;;;;5125971;28;20094;-81
2022/05/04 05:28:39;;;;;;;8.85;2.42;;;7.80;99.90;;;;;;5126054;28;20047;-81
2022/05/04 05:31:04;;;;;;;8.60;2.40;;;7.80;99.90;;;;;;5125939;28;20044;-81
2022/05/04 05:33:30;;;;;;;6.53;2.20;;;7.80;99.90;;;;;;5125980;28;20090;-81
2022/05/04 05:35:55;;;;;;;7.20;2.50;;;7.80;99.90;;;;;;5124626;28;20051;-81
2022/05/04 05:38:21;;;;;;;7.53;1.90;;;8.10;99.90;;;;;;5124129;28;20051;-81
2022/05/04 05:40:47;;;;;;;6.85;1.83;;;7.90;99.90;;;;;;5124278;28;20035;-81
2022/05/04 05:46:54;;;;;;;7.97;2.10;;;8.00;99.90;;;;;;5126083;28;20127;-81
2022/05/04 05:49:19;;;;;;;5.93;2.28;;;8.10;99.90;;;;;;5125176;28;20059;-81
2022/05/04 05:51:45;;;;;;;7.57;2.42;;;8.70;99.90;;;;;;5124386;28;20086;-81
2022/05/04 05:54:10;;;;;;;9.80;2.33;;;8.10;99.90;;;;;;5124642;28;20125;-81
2022/05/04 05:56:36;;;;;;;9.63;2.28;;;8.10;99.90;;;;;;5126069;28;20040;-81
2022/05/04 05:59:03;;;;;;;7.05;2.55;;;8.20;99.90;;;;;;5125029;28;20035;-80
2022/05/04 06:01:29;;;;;;;6.95;2.13;;;8.20;99.90;;;;;;5125773;28;20051;-81
2022/05/04 06:03:54;;;;;;;4.07;1.75;;;8.30;99.90;;;;;;5125713;28;20092;-81
2022/05/04 06:06:21;;;;;;;5.10;1.92;;;8.30;99.90;;;;;;5126175;28;20118;-81
2022/05/04 06:08:46;;;;;;;6.53;1.70;;;8.40;99.90;;;;;;5124357;28;20091;-82
2022/05/04 06:11:12;;;;;;;6.13;1.90;;;8.80;99.90;;;;;;5124291;28;20078;-81
2022/05/04 06:17:19;;;;;;;7.75;2.20;;;8.50;99.90;;;;;;5125347;28;20039;-81
2022/05/04 06:19:44;;;;;;;8.50;2.28;;;8.60;99.90;;;;;;5123235;28;20047;-81
2022/05/04 06:22:10;;;;;;;7.78;2.35;;;8.70;99.90;;;;;;5123833;28;20039;-81
2022/05/04 06:24:35;;;;;;;8.77;2.10;;;9.00;99.90;;;;;;5123037;28;20153;-81
2022/05/04 06:27:01;;;;;;;7.45;1.77;;;8.80;99.90;;;;;;5124428;28;20074;-81
2022/05/04 06:34:06;;;;;;;7.22;2.33;;;8.80;99.90;;;;;;5124018;28;20044;-81
2022/05/04 06:34:58;;;;;;;10.30;1.80;;;9.00;99.90;;;;;;5101664;28;20122;-81
2022/05/04 06:37:24;;;;;;;10.07;2.08;;;9.10;99.90;;;;;;5083798;28;20479;-81
2022/05/04 06:39:50;;;;;;;6.75;2.05;;;9.10;99.90;;;;;;5101589;28;20063;-81
2022/05/04 06:42:17;;;;;;;7.57;1.95;;;9.30;99.90;;;;;;5101273;28;20040;-81
2022/05/04 06:44:43;;;;;;;7.07;2.10;;;9.30;99.90;;;;;;5101373;28;20044;-81
2022/05/04 06:47:08;;;;;;;6.30;2.28;;;9.30;99.90;;;;;;5101858;28;20085;-81
2022/05/04 06:49:34;;;;;;;7.53;2.00;;;9.40;99.90;;;;;;5084444;28;20043;-81
2022/05/04 06:52:00;;;;;;;8.40;2.13;;;9.40;99.90;;;;;;5101956;28;20047;-81
2022/05/04 06:54:25;;;;;;;8.52;2.10;;;9.50;99.90;;;;;;5102730;28;20554;-81
2022/05/04 06:56:51;;;;;;;5.90;1.80;;;9.60;99.90;;;;;;5101022;28;20051;-81
2022/05/04 06:59:17;;;;;;;5.05;1.88;;;10.00;99.90;;;;;;5100122;28;20116;-81
2022/05/04 07:01:42;;;;;;;5.80;1.77;;;9.70;99.90;;;;;;5101611;28;20044;-81
2022/05/04 07:04:08;;;;;;;7.03;2.30;;;9.70;99.90;;;;;;5096615;28;20062;-82
2022/05/04 07:06:33;;;;;;;9.15;2.03;;;9.80;99.90;;;;;;5094722;28;20465;-82
2022/05/04 07:08:59;;;;;;;7.53;2.20;;;9.90;99.90;;;;;;5062118;28;20040;-82
2022/05/04 07:11:25;;;;;;;8.10;2.15;;;10.40;99.90;;;;;;5085513;28;20101;-82
2022/05/04 07:17:31;;;;;;;5.07;1.92;;;9.90;99.90;;;;;;5116372;28;20038;-81
2022/05/04 07:19:57;;;;;;;6.30;1.95;;;10.20;99.90;;;;;;5121884;28;20471;-81
2022/05/04 07:22:23;;;;;;;5.90;1.88;;;10.20;99.90;;;;;;5125444;28;20052;-82
2022/05/04 07:24:50;;;;;;;7.70;1.90;;;10.10;99.90;;;;;;5119271;28;20105;-81
2022/05/04 07:27:16;;;;;;;6.32;1.95;;;10.30;99.90;;;;;;5123191;28;20059;-81
2022/05/04 07:29:44;;;;;;;6.68;2.10;;;10.30;99.90;;;;;;5121748;28;20047;-82
2022/05/04 07:32:10;;;;;;;7.63;1.60;;;10.40;99.90;;;;;;5118130;28;20053;-82
2022/05/04 07:34:37;;;;;;;5.68;1.90;;;10.50;99.90;;;;;;5118117;28;20044;-82
2022/05/04 07:37:03;;;;;;;8.35;2.00;;;10.40;99.90;;;;;;5118591;28;20059;-81
2022/05/04 07:42:24;;;;;;;6.43;2.05;;;10.20;99.90;;;;;;5118436;28;20056;-82
2022/05/04 07:44:51;;;;;;;8.45;1.90;;;10.10;99.90;;;;;;5122316;28;20055;-82
2022/05/04 07:47:17;;;;;;;8.00;2.17;;;10.20;99.90;;;;;;5118899;28;20075;-82
2022/05/04 07:49:43;;;;;;;7.03;2.00;;;10.30;99.90;;;;;;5119133;28;20123;-81
2022/05/04 07:52:08;;;;;;;5.55;2.03;;;10.40;99.90;;;;;;5135127;27;20102;-82
2022/05/04 07:54:34;;;;;;;7.78;2.08;;;10.20;99.90;;;;;;5101887;28;20043;-82
2022/05/04 07:57:00;;;;;;;6.28;1.92;;;10.30;99.90;;;;;;5118686;28;20076;-81
2022/05/04 07:59:25;;;;;;;6.30;2.10;;;10.20;99.90;;;;;;5117802;28;20044;-82
2022/05/04 08:04:35;;;;;;;4.93;1.90;;;10.20;99.90;;;;;;5122126;28;20043;-82
2022/05/04 08:07:02;;;;;;;10.70;2.05;;;10.60;99.90;;;;;;5119431;28;20050;-82
2022/05/04 08:09:27;;;;;;;7.50;2.03;;;10.50;99.90;;;;;;5121374;28;20043;-82
2022/05/04 08:11:53;;;;;;;4.65;2.00;;;10.60;99.90;;;;;;5119762;28;20062;-82
2022/05/04 08:14:19;;;;;;;7.22;1.73;;;11.20;99.90;;;;;;5117622;28;20051;-82
2022/05/04 08:16:45;;;;;;;9.38;1.77;;;11.10;99.90;;;;;;5115318;28;20414;-82
2022/05/04 08:19:10;;;;;;;7.55;1.90;;;10.90;99.90;;;;;;5113991;28;20403;-82
2022/05/04 08:21:37;;;;;;;8.13;2.40;;;10.90;99.90;;;;;;5118300;28;20531;-82
2022/05/04 08:24:03;;;;;;;6.40;2.10;;;10.90;99.90;;;;;;5114840;28;20055;-82
2022/05/04 08:26:29;;;;;;;4.93;1.90;;;11.00;99.90;;;;;;5116732;28;20062;-82
2022/05/04 08:32:36;;;;;;;7.85;2.25;;;11.00;99.90;;;;;;5116196;28;20081;-82
2022/05/04 08:35:02;;;;;;;7.53;2.20;;;11.10;99.90;;;;;;5114483;28;20043;-82
2022/05/04 08:37:27;;;;;;;5.22;2.25;;;10.80;99.90;;;;;;5117260;28;20440;-82
2022/05/04 08:39:55;;;;;;;8.52;2.95;;;10.90;99.90;;;;;;5115312;28;20048;-82
2022/05/04 08:42:21;;;;;;;6.95;1.80;;;11.30;99.90;;;;;;5119407;28;20417;-82
2022/05/04 08:44:51;;;;;;;7.68;2.20;;;11.30;99.90;;;;;;5126660;28;20054;-82
2022/05/04 08:47:20;;;;;;;7.30;2.00;;;11.10;99.90;;;;;;5127558;28;20065;-82
2022/05/04 08:49:47;;;;;;;5.40;1.98;;;11.00;99.90;;;;;;5120681;28;20122;-82
2022/05/04 08:52:13;;;;;;;4.47;1.95;;;11.60;99.90;;;;;;5113897;28;20122;-82
2022/05/04 08:54:40;;;;;;;6.13;1.90;;;11.40;99.90;;;;;;5113712;28;20135;-82
2022/05/04 08:57:07;;;;;;;9.45;2.00;;;11.90;99.90;;;;;;5115017;28;20395;-82
2022/05/04 08:59:34;;;;;;;5.63;2.28;;;11.60;99.90;;;;;;5119189;28;20052;-82
2022/05/04 09:01:59;;;;;;;6.13;2.00;;;11.60;99.90;;;;;;5117496;28;20551;-82
2022/05/04 09:04:25;;;;;;;5.85;2.03;;;11.80;99.90;;;;;;5117693;28;20126;-82
2022/05/04 09:06:51;;;;;;;7.00;2.05;;;11.60;99.90;;;;;;5116819;28;20039;-82
2022/05/04 09:09:16;;;;;;;7.00;2.20;;;11.50;99.90;;;;;;5117396;28;20506;-82
2022/05/04 09:18:49;;;;;;;6.82;2.00;;;11.70;99.90;;;;;;5119638;28;20505;-82
2022/05/04 09:21:21;;;;;;;6.63;2.08;;;11.90;99.90;;;;;;5115761;28;20079;-82
2022/05/04 09:23:52;;;;;;;5.45;2.20;;;12.20;99.90;;;;;;5116595;28;20382;-82
2022/05/04 09:26:19;;;;;;;6.03;1.95;;;12.40;99.90;;;;;;5117405;28;20039;-82
2022/05/04 09:32:30;;;;;;;4.78;1.83;;;12.80;99.90;;;;;;5118089;28;20061;-82
2022/05/04 09:34:56;;;;;;;6.38;2.10;;;12.80;99.90;;;;;;5117528;28;20039;-82
2022/05/04 09:45:38;;;;;;;;;;;13.20;99.90;;;;;;5116853;28;20058;-83
2022/05/04 09:48:05;;;;;;;7.72;2.22;;;13.20;99.90;;;;;;5117353;28;19927;-82
2022/05/04 09:50:39;;;;;;;6.95;2.38;;;13.30;99.90;;;;;;5116706;28;20123;-82
2022/05/04 09:53:05;;;;;;;8.02;2.60;;;13.40;99.90;;;;;;5116569;27;20042;-83
2022/05/04 09:55:31;;;;;;;7.10;2.20;;;13.60;99.90;;;;;;5116575;28;20040;-82
2022/05/04 09:57:57;;;;;;;6.07;2.13;;;13.40;99.90;;;;;;5119113;28;20051;-83
2022/05/04 10:00:26;;;;;;;6.28;2.00;;;13.30;99.90;;;;;;5115230;28;20042;-83
2022/05/04 10:02:53;;;;;;;6.93;2.30;;;12.90;99.90;;;;;;5116098;28;20048;-83
2022/05/04 10:05:20;;;;;;;6.00;2.20;;;12.70;99.90;;;;;;5114912;28;20486;-83
2022/05/04 10:07:49;;;;;;;6.47;2.17;;;12.50;99.90;;;;;;5116648;28;20431;-82
2022/05/04 10:10:18;;;;;;;6.80;2.25;;;12.20;99.90;;;;;;5114662;28;20047;-83
2022/05/04 10:12:45;;;;;;;6.32;2.40;;;12.10;99.90;;;;;;5115239;28;20397;-82
2022/05/04 10:15:13;;;;;;;8.77;2.67;;;12.10;99.90;;;;;;5114675;28;20482;-83
2022/05/04 10:18:05;;;;;;;9.07;2.70;;;12.40;99.90;;;;;;5116642;28;20051;-83
2022/05/04 10:20:35;;;;;;;5.82;2.38;;;12.70;99.90;;;;;;5114567;28;20127;-83
2022/05/04 10:23:02;;;;;;;7.20;2.40;;;13.10;99.90;;;;;;5114515;28;20051;-83
2022/05/04 10:25:33;;;;;;;8.13;2.63;;;13.50;99.90;;;;;;5131470;27;20130;-83
2022/05/04 10:28:26;;;;;;;8.23;2.70;;;13.80;99.90;;;;;;5115914;28;20035;-83
2022/05/04 10:30:53;;;;;;;7.63;2.40;;;13.90;99.90;;;;;;5110619;28;20556;-83
2022/05/04 10:33:33;;;;;;;5.65;2.47;;;14.00;99.90;;;;;;5115807;28;20047;-83
2022/05/04 10:36:19;;;;;;;4.47;2.40;;;13.80;99.90;;;;;;5115772;28;20079;-83
2022/05/04 10:38:50;;;;;;;6.63;2.70;;;13.60;99.90;;;;;;5115791;28;20046;-83
2022/05/04 10:41:35;;;;;;;8.23;2.45;;;13.40;99.90;;;;;;5114103;28;20048;-83
2022/05/04 10:44:02;;;;;;;5.40;2.63;;;13.60;99.90;;;;;;5131165;27;20051;-83
2022/05/04 10:46:30;;;;;;;7.38;2.53;;;13.70;99.90;;;;;;5113816;28;20062;-83
2022/05/04 10:48:57;;;;;;;8.73;3.00;;;13.90;99.90;;;;;;5113814;28;20047;-83
2022/05/04 10:51:27;;;;;;;6.53;2.72;;;13.70;99.90;;;;;;5113896;28;20043;-83
2022/05/04 10:53:59;;;;;;;6.25;2.60;;;13.60;99.90;;;;;;5115498;28;20036;-82
2022/05/04 10:56:27;;;;;;;6.25;2.70;;;13.70;99.90;;;;;;5135721;27;20406;-83
2022/05/04 10:58:59;;;;;;;8.57;2.80;;;13.70;99.90;;;;;;5115716;28;20051;-82
2022/05/04 11:01:34;;;;;;;8.77;3.03;;;14.00;99.90;;;;;;5114068;28;20054;-82
2022/05/04 11:04:14;;;;;;;5.43;2.42;;;14.20;99.90;;;;;;5114610;28;20429;-83
2022/05/04 11:07:02;;;;;;;6.25;2.75;;;14.50;99.90;;;;;;5113589;28;20047;-83
2022/05/04 11:09:32;;;;;;;8.38;3.03;;;14.70;99.90;;;;;;5113953;28;20070;-83
2022/05/04 11:12:00;;;;;;;7.53;2.90;;;14.70;99.90;;;;;;5115150;28;20527;-83
2022/05/04 11:14:26;;;;;;;7.00;2.85;;;14.90;99.90;;;;;;5113584;28;20406;-83
2022/05/04 11:16:54;;;;;;;7.82;2.67;;;15.00;99.90;;;;;;5114506;28;20401;-83
2022/05/04 11:19:23;;;;;;;5.88;2.58;;;15.10;99.90;;;;;;5113581;28;20121;-83
2022/05/04 11:21:48;;;;;;;6.50;2.30;;;15.10;99.90;;;;;;5112619;28;20047;-84
2022/05/04 11:24:15;;;;;;;7.97;2.75;;;15.40;99.90;;;;;;5113423;28;20101;-84
2022/05/04 11:26:46;;;;;;;5.60;2.60;;;15.60;99.90;;;;;;5113345;28;20078;-83
2022/05/04 11:29:17;;;;;;;6.80;2.50;;;15.50;99.90;;;;;;5113236;28;20035;-84
2022/05/04 11:31:46;;;;;;;8.88;3.13;;;15.60;99.90;;;;;;5113601;28;20475;-84
2022/05/04 11:34:16;;;;;;;6.43;2.38;;;15.80;99.90;;;;;;5114522;28;20501;-83
2022/05/04 11:36:49;;;;;;;5.10;2.53;;;15.80;99.90;;;;;;5113075;28;20043;-83
2022/05/04 11:39:18;;;;;;;7.93;2.72;;;15.90;99.90;;;;;;5130625;27;20066;-84
2022/05/04 11:41:49;;;;;;;6.65;2.55;;;16.10;99.90;;;;;;5114143;28;20122;-84
2022/05/04 11:44:15;;;;;;;10.13;2.80;;;16.20;99.90;;;;;;5113051;28;20481;-84
2022/05/04 11:46:45;;;;;;;7.35;2.70;;;16.90;99.90;;;;;;5112915;28;20055;-83
2022/05/04 11:49:11;;;;;;;7.80;3.05;;;16.30;99.90;;;;;;5113013;28;20043;-84
2022/05/04 11:51:37;;;;;;;6.43;3.22;;;16.30;99.90;;;;;;5113045;28;20452;-83
2022/05/04 11:54:03;;;;;;;7.18;2.90;;;16.10;99.90;;;;;;5113303;28;20039;-83
2022/05/04 11:56:29;;;;;;;5.93;2.65;;;16.10;99.90;;;;;;5112983;28;20047;-83
2022/05/04 11:58:54;;;;;;;5.72;2.72;;;16.40;99.90;;;;;;5130649;27;20079;-82
2022/05/04 12:01:20;;;;;;;7.10;2.60;;;16.60;99.90;;;;;;5114107;28;20113;-82
2022/05/04 12:03:47;;;;;;;6.88;2.88;;;16.80;99.90;;;;;;5112728;28;20043;-83
2022/05/04 12:06:13;;;;;;;6.25;2.83;;;16.90;99.90;;;;;;5112926;28;20036;-83
2022/05/04 12:08:42;;;;;;;5.38;2.72;;;17.20;99.90;;;;;;5114096;28;20086;-83
2022/05/04 12:11:09;;;;;;;4.70;2.35;;;17.10;99.90;;;;;;5114309;28;20051;-83
2022/05/04 12:13:37;;;;;;;8.48;3.00;;;17.30;99.90;;;;;;5112856;28;20379;-83
2022/05/04 12:16:03;;;;;;;7.22;2.78;;;17.40;99.90;;;;;;5113887;28;20491;-83
2022/05/04 12:18:32;;;;;;;7.97;3.10;;;17.60;99.90;;;;;;5112821;28;20094;-83
2022/05/04 12:21:13;;;;;;;8.77;3.17;;;17.50;99.90;;;;;;5131661;28;20036;-83
2022/05/04 12:23:41;;;;;;;7.50;3.30;;;17.40;99.90;;;;;;5133188;28;20438;-83
2022/05/04 12:26:08;;;;;;;5.72;3.00;;;17.50;99.90;;;;;;5113330;28;20143;-83
2022/05/04 12:28:35;;;;;;;4.85;2.60;;;17.50;99.90;;;;;;5112925;28;20054;-82
2022/05/04 12:33:48;;;;;;;8.45;3.25;;;17.50;98.30;;;;;;5117270;28;20066;-82
2022/05/04 12:36:16;;;;;;;5.80;3.30;;;17.80;97.70;;;;;;5116617;28;20062;-82
2022/05/04 12:38:46;;;;;;;5.43;2.95;;;17.90;98.60;;;;;;5116972;28;20493;-83
2022/05/04 12:41:12;;;;;;;6.20;3.20;;;17.80;98.10;;;;;;5118569;28;20043;-82
2022/05/04 12:43:38;;;;;;;5.72;3.20;;;17.80;96.10;;;;;;5118294;28;20043;-82
2022/05/04 12:46:09;;;;;;;7.05;3.20;;;17.80;95.40;;;;;;5118093;28;20108;-82
2022/05/04 12:48:46;;;;;;;5.40;2.97;;;17.90;96.10;;;;;;5123575;28;20048;-82
2022/05/04 12:51:14;;;;;;;4.88;2.60;;;18.20;94.70;;;;;;5118217;28;20050;-83
2022/05/04 12:53:40;;;;;;;7.70;3.10;;;18.30;93.80;;;;;;5116813;28;20051;-82
2022/05/04 12:58:56;;;;;;;7.18;3.25;;;18.20;95.30;;;;;;5117413;28;20058;-83
2022/05/04 13:01:23;;;;;;;7.10;2.92;;;18.30;95.10;;;;;;5116207;28;20122;-82
2022/05/04 13:03:50;;;;;;;7.50;3.53;;;18.30;95.20;;;;;;5117701;28;20051;-82
2022/05/04 13:06:20;;;;;;;8.07;3.58;;;18.30;94.50;;;;;;5117252;28;20536;-83
2022/05/04 13:08:48;;;;;;;5.68;3.17;;;18.30;93.80;;;;;;5116033;28;20048;-83
2022/05/04 13:11:17;;;;;;;5.80;3.30;;;18.40;94.60;;;;;;5133130;27;20052;-83
2022/05/04 13:13:42;;;;;;;6.15;3.00;;;18.50;94.00;;;;;;5132781;27;20036;-82
2022/05/04 13:16:08;;;;;;;6.10;2.75;;;18.60;93.40;;;;;;5115980;28;20051;-83
2022/05/04 13:18:34;;;;;;;5.22;3.10;;;18.80;94.10;;;;;;5116073;28;20066;-82
2022/05/04 13:20:59;;;;;;;8.02;3.47;;;19.00;94.30;;;;;;5115563;28;20048;-83
2022/05/04 13:23:25;;;;;;;6.72;3.33;;;19.10;94.10;;;;;;5116914;28;20040;-83
2022/05/04 13:25:51;;;;;;;6.05;2.80;;;19.20;94.30;;;;;;5115557;28;20082;-82
2022/05/04 13:28:16;;;;;;;14.05;3.30;;;19.40;94.20;;;;;;5116992;28;20043;-83
2022/05/04 13:30:42;;;;;;;8.80;3.60;;;19.50;94.40;;;;;;5117075;28;20488;-83
2022/05/04 13:33:08;;;;;;;6.80;3.58;;;19.50;94.60;;;;;;5115639;28;20073;-83
2022/05/04 13:35:34;;;;;;;7.57;3.22;;;19.70;94.90;;;;;;5116565;28;20519;-83
2022/05/04 13:38:00;;;;;;;6.28;3.72;;;19.80;95.10;;;;;;5116894;28;20083;-83
2022/05/04 13:40:27;;;;;;;6.00;3.70;;;19.80;94.10;;;;;;5116682;28;20138;-83
2022/05/04 13:42:53;;;;;;;6.38;3.55;;;19.60;92.80;;;;;;5115224;28;20085;-83
2022/05/04 13:45:19;;;;;;;8.70;4.22;;;19.00;92.20;;;;;;5114160;28;20043;-83
2022/05/04 13:47:45;;;;;;;8.75;3.50;;;19.10;93.00;;;;;;5116114;28;20055;-83
2022/05/04 13:55:42;;;;;;;8.48;3.75;;;19.50;93.90;;;;;;5114789;28;20051;-83
2022/05/04 13:58:08;;;;;;;7.28;3.15;;;19.50;93.60;;;;;;5116627;28;20047;-83
2022/05/04 14:00:34;;;;;;;5.97;3.28;;;19.60;93.80;;;;;;5126574;28;20044;-83
2022/05/04 14:02:59;;;;;;;7.97;3.25;;;19.80;93.20;;;;;;5122862;28;20047;-83
2022/05/04 14:05:25;;;;;;;8.13;3.70;;;20.00;92.40;;;;;;5123791;28;20051;-83
2022/05/04 14:07:52;;;;;;;6.80;4.00;;;20.00;93.00;;;;;;5116020;28;20094;-82
2022/05/04 14:10:18;;;;;;;7.25;4.00;;;20.30;93.20;;;;;;5114724;28;20036;-83
2022/05/04 14:19:28;;;;;;;8.63;3.90;;;19.40;92.50;;;;;;5117527;28;20046;-82
2022/05/04 14:21:54;;;;;;;9.25;4.00;;;18.70;92.70;;;;;;5118264;28;20047;-82
2022/05/04 14:24:19;;;;;;;7.97;3.90;;;18.60;92.50;;;;;;5114888;28;20042;-82
2022/05/04 14:26:47;;;;;;;6.40;3.80;;;18.60;93.10;;;;;;5116598;28;20039;-82
2022/05/04 14:29:13;;;;;;;7.13;4.45;;;18.40;92.50;;;;;;5116583;27;20050;-82